»·PEaware :: N6423L KSNA-KSNA

N6423L :: KSNA-KSNA

FLIGHT INFORMATION

Flight Status: Arrived
Operator: Privately registered:
United States
More flights under this callsign
Pilot: Alexander M. (19327)
Aircraft: CESSNA 550 CITATION 2/S2/BRAVO
(C550)
More flights by this aircraft type
Origin: KSNA John Wayne-Orange Co
United States
Destination: KSNA John Wayne-Orange Co
United States
More flights between these airports :: More routes between these airports
Route: +SLI
File this flight plan on PilotEdge
Remarks: Pilotedge I-01 Rating...on stream! twitch.tv / allaboutflight
Altitude:
(Current/Filed)
3,000ft
Speed:
(Current/Filed)
180kts
Departed: 26-Oct-18 11:50 AM
Arrived: 26-Oct-18 12:18 PM
Distance/Time
Traveled:
1nm/0:28
Distance/Time
To Go:
Arrived

Flight Plot

Page will automatically refresh every two minutes.


Map Options




Map Legend


Flown Route
Filed Route
Departure Airport
Arrival Airport
Navaid (VOR, NDB)
Fix

Horizontal Profiles

Position Reports

Time Latitude Longitude Heading Altitude Ground
Speed
26-Oct-18 11:33 33.672267 -117.866685 210 61ft 0kts
26-Oct-18 11:34 33.672267 -117.866685 210 61ft 0kts
26-Oct-18 11:35 33.672267 -117.866685 210 61ft 0kts
26-Oct-18 11:36 33.672267 -117.866685 210 61ft 0kts
26-Oct-18 11:37 33.672267 -117.866685 210 61ft 0kts
26-Oct-18 11:38 33.672267 -117.866685 210 61ft 0kts
26-Oct-18 11:39 33.672267 -117.866685 210 61ft 0kts
26-Oct-18 11:40 33.672267 -117.866685 210 61ft 0kts
26-Oct-18 11:41 33.672267 -117.866685 210 61ft 0kts
26-Oct-18 11:42 33.672267 -117.866685 210 61ft 0kts
26-Oct-18 11:43 33.672372 -117.866892 322 61ft 5kts
26-Oct-18 11:44 33.674251 -117.866393 27 61ft 12kts
26-Oct-18 11:45 33.676673 -117.864857 27 61ft 14kts
26-Oct-18 11:46 33.679220 -117.863235 28 61ft 12kts
26-Oct-18 11:47 33.680707 -117.863204 298 61ft 0kts
26-Oct-18 11:48 33.680707 -117.863204 298 61ft 0kts
26-Oct-18 11:49 33.680707 -117.863204 298 61ft 0kts
26-Oct-18 11:50 33.680707 -117.863204 298 61ft 0kts
26-Oct-18 11:51 33.680716 -117.863224 298 61ft 2kts
26-Oct-18 11:52 33.678650 -117.866977 207 61ft 102kts
26-Oct-18 11:53 33.649984 -117.884978 183 940ft 121kts
26-Oct-18 11:54 33.618639 -117.887173 184 1319ft 123kts
26-Oct-18 11:55 33.578222 -117.891812 184 2321ft 190kts
26-Oct-18 11:56 33.523210 -117.897064 184 3016ft 177kts
26-Oct-18 11:57 33.480463 -117.901135 181 3679ft 139kts
26-Oct-18 11:58 33.461545 -117.872393 77 4116ft 144kts
26-Oct-18 11:59 33.493550 -117.842895 19 4113ft 189kts
26-Oct-18 12:00 33.535526 -117.825484 19 4108ft 169kts
26-Oct-18 12:01 33.574370 -117.809459 19 4108ft 158kts
26-Oct-18 12:02 33.612152 -117.793900 19 4109ft 152kts
26-Oct-18 12:03 33.647895 -117.779072 19 4110ft 149kts
26-Oct-18 12:04 33.685063 -117.763212 19 4112ft 144kts
26-Oct-18 12:05 33.720246 -117.746685 19 4114ft 137kts
26-Oct-18 12:06 33.754159 -117.730793 19 4126ft 135kts
26-Oct-18 12:07 33.788929 -117.714776 19 4116ft 131kts
26-Oct-18 12:08 33.820795 -117.700333 19 4117ft 122kts
26-Oct-18 12:09 33.850103 -117.691823 330 4116ft 116kts
26-Oct-18 12:10 33.863894 -117.720031 281 3969ft 101kts
26-Oct-18 12:11 33.850775 -117.746078 231 3603ft 112kts
26-Oct-18 12:12 33.830861 -117.769470 209 3213ft 116kts
26-Oct-18 12:13 33.805268 -117.785216 204 2983ft 113kts
26-Oct-18 12:14 33.784576 -117.797028 209 2369ft 104kts
26-Oct-18 12:15 33.763496 -117.811765 211 2267ft 109kts
26-Oct-18 12:16 33.741721 -117.827035 208 1974ft 109kts
26-Oct-18 12:17 33.719729 -117.840749 207 1220ft 109kts
26-Oct-18 12:18 33.696257 -117.855710 207 485ft 112kts
26-Oct-18 12:19 33.674459 -117.869649 208 61ft 79kts
26-Oct-18 12:20 33.669440 -117.871976 143 61ft 0kts
26-Oct-18 12:21 33.667797 -117.872299 220 61ft 14kts
26-Oct-18 12:22 33.666758 -117.872580 237 61ft 0kts
26-Oct-18 12:23 33.666758 -117.872580 237 61ft 0kts
26-Oct-18 12:24 33.666758 -117.872580 237 61ft 0kts
26-Oct-18 12:25 33.666758 -117.872580 237 61ft 0kts
26-Oct-18 12:26 33.666758 -117.872580 237 61ft 0kts
26-Oct-18 12:27 33.666758 -117.872580 237 61ft 0kts
26-Oct-18 12:28 33.666758 -117.872580 237 61ft 0kts
26-Oct-18 12:29 33.666758 -117.872580 237 61ft 0kts
26-Oct-18 12:30 33.666758 -117.872580 237 61ft 0kts
26-Oct-18 12:31 33.666758 -117.872580 237 61ft 0kts
26-Oct-18 12:32 33.666758 -117.872580 237 61ft 0kts
26-Oct-18 12:33 33.666758 -117.872580 237 61ft 0kts
26-Oct-18 12:34 33.666758 -117.872580 237 61ft 0kts

Navigation Log

Ident Type
1. KSNA Airport
2. SLI Navaid
3. KSNA Airport